sensor_id;sensor_type;location;lat;lon;timestamp;P1;durP1;ratioP1;P2;durP2;ratioP2
26822;SDS011;14852;51.910;8.878;2023-03-13T00:01:01;15.18;;;4.82;;
26822;SDS011;14852;51.910;8.878;2023-03-13T00:03:38;12.40;;;4.25;;
26822;SDS011;14852;51.910;8.878;2023-03-13T00:06:04;14.63;;;4.30;;
26822;SDS011;14852;51.910;8.878;2023-03-13T00:08:31;19.33;;;5.68;;
26822;SDS011;14852;51.910;8.878;2023-03-13T00:10:56;23.23;;;6.22;;
26822;SDS011;14852;51.910;8.878;2023-03-13T00:13:22;16.05;;;4.30;;
26822;SDS011;14852;51.910;8.878;2023-03-13T00:15:48;19.52;;;4.63;;
26822;SDS011;14852;51.910;8.878;2023-03-13T00:18:14;15.35;;;4.40;;
26822;SDS011;14852;51.910;8.878;2023-03-13T00:20:40;7.05;;;3.25;;
26822;SDS011;14852;51.910;8.878;2023-03-13T00:23:05;14.75;;;4.03;;
26822;SDS011;14852;51.910;8.878;2023-03-13T00:25:31;11.88;;;3.60;;
26822;SDS011;14852;51.910;8.878;2023-03-13T00:27:57;14.95;;;4.88;;
26822;SDS011;14852;51.910;8.878;2023-03-13T00:30:23;12.85;;;4.93;;
26822;SDS011;14852;51.910;8.878;2023-03-13T00:32:49;12.70;;;4.57;;
26822;SDS011;14852;51.910;8.878;2023-03-13T00:35:15;12.90;;;3.97;;
26822;SDS011;14852;51.910;8.878;2023-03-13T00:37:41;7.95;;;3.55;;
26822;SDS011;14852;51.910;8.878;2023-03-13T00:40:08;10.00;;;3.95;;
26822;SDS011;14852;51.910;8.878;2023-03-13T00:42:35;16.83;;;4.40;;
26822;SDS011;14852;51.910;8.878;2023-03-13T00:45:01;11.45;;;4.00;;
26822;SDS011;14852;51.910;8.878;2023-03-13T00:47:28;11.15;;;4.55;;
26822;SDS011;14852;51.910;8.878;2023-03-13T00:49:53;9.15;;;4.63;;
26822;SDS011;14852;51.910;8.878;2023-03-13T00:52:20;15.20;;;4.55;;
26822;SDS011;14852;51.910;8.878;2023-03-13T00:54:46;11.32;;;3.83;;
26822;SDS011;14852;51.910;8.878;2023-03-13T00:57:12;9.75;;;4.50;;
26822;SDS011;14852;51.910;8.878;2023-03-13T00:59:38;12.63;;;4.50;;
26822;SDS011;14852;51.910;8.878;2023-03-13T01:02:04;10.75;;;4.25;;
26822;SDS011;14852;51.910;8.878;2023-03-13T01:04:31;13.18;;;4.70;;
26822;SDS011;14852;51.910;8.878;2023-03-13T01:06:56;11.73;;;4.13;;
26822;SDS011;14852;51.910;8.878;2023-03-13T01:09:22;10.73;;;3.47;;
26822;SDS011;14852;51.910;8.878;2023-03-13T01:11:48;13.50;;;3.72;;
26822;SDS011;14852;51.910;8.878;2023-03-13T01:14:15;10.68;;;3.80;;
26822;SDS011;14852;51.910;8.878;2023-03-13T01:16:44;11.85;;;3.85;;
26822;SDS011;14852;51.910;8.878;2023-03-13T01:19:11;8.65;;;4.20;;
26822;SDS011;14852;51.910;8.878;2023-03-13T01:21:40;15.60;;;4.45;;
26822;SDS011;14852;51.910;8.878;2023-03-13T01:24:07;12.45;;;4.65;;
26822;SDS011;14852;51.910;8.878;2023-03-13T01:26:33;10.07;;;3.85;;
26822;SDS011;14852;51.910;8.878;2023-03-13T01:28:59;8.15;;;3.80;;
26822;SDS011;14852;51.910;8.878;2023-03-13T01:31:27;17.00;;;3.85;;
26822;SDS011;14852;51.910;8.878;2023-03-13T01:33:58;9.35;;;3.88;;
26822;SDS011;14852;51.910;8.878;2023-03-13T01:36:27;10.98;;;4.10;;
26822;SDS011;14852;51.910;8.878;2023-03-13T01:38:54;7.97;;;3.35;;
26822;SDS011;14852;51.910;8.878;2023-03-13T01:41:24;12.43;;;4.30;;
26822;SDS011;14852;51.910;8.878;2023-03-13T01:43:51;11.05;;;3.97;;
26822;SDS011;14852;51.910;8.878;2023-03-13T01:46:20;9.15;;;4.45;;
26822;SDS011;14852;51.910;8.878;2023-03-13T01:49:10;13.45;;;4.18;;
26822;SDS011;14852;51.910;8.878;2023-03-13T01:52:23;8.10;;;3.90;;
26822;SDS011;14852;51.910;8.878;2023-03-13T01:55:03;9.93;;;3.65;;
26822;SDS011;14852;51.910;8.878;2023-03-13T01:57:41;11.63;;;4.30;;
26822;SDS011;14852;51.910;8.878;2023-03-13T02:00:27;9.07;;;3.85;;
26822;SDS011;14852;51.910;8.878;2023-03-13T02:03:01;12.20;;;4.63;;
26822;SDS011;14852;51.910;8.878;2023-03-13T02:05:33;9.75;;;3.75;;
26822;SDS011;14852;51.910;8.878;2023-03-13T02:08:01;13.20;;;4.97;;
26822;SDS011;14852;51.910;8.878;2023-03-13T02:10:35;13.68;;;5.30;;
26822;SDS011;14852;51.910;8.878;2023-03-13T02:13:08;9.52;;;3.40;;
26822;SDS011;14852;51.910;8.878;2023-03-13T02:15:39;16.25;;;3.90;;
26822;SDS011;14852;51.910;8.878;2023-03-13T02:18:07;9.73;;;4.03;;
26822;SDS011;14852;51.910;8.878;2023-03-13T02:20:33;12.32;;;3.78;;
26822;SDS011;14852;51.910;8.878;2023-03-13T02:23:03;10.25;;;4.00;;
26822;SDS011;14852;51.910;8.878;2023-03-13T02:25:53;11.85;;;3.97;;
26822;SDS011;14852;51.910;8.878;2023-03-13T02:28:24;9.13;;;2.80;;
26822;SDS011;14852;51.910;8.878;2023-03-13T02:30:57;8.48;;;3.70;;
26822;SDS011;14852;51.910;8.878;2023-03-13T02:33:25;5.78;;;2.30;;
26822;SDS011;14852;51.910;8.878;2023-03-13T02:35:55;13.05;;;3.60;;
26822;SDS011;14852;51.910;8.878;2023-03-13T02:38:24;6.75;;;3.40;;
26822;SDS011;14852;51.910;8.878;2023-03-13T02:40:53;10.90;;;4.03;;
26822;SDS011;14852;51.910;8.878;2023-03-13T02:43:25;12.70;;;4.40;;
26822;SDS011;14852;51.910;8.878;2023-03-13T02:46:07;10.85;;;3.55;;
26822;SDS011;14852;51.910;8.878;2023-03-13T02:48:48;17.33;;;5.30;;
26822;SDS011;14852;51.910;8.878;2023-03-13T02:51:19;15.50;;;4.18;;
26822;SDS011;14852;51.910;8.878;2023-03-13T02:54:08;9.98;;;3.15;;
26822;SDS011;14852;51.910;8.878;2023-03-13T02:56:41;8.55;;;3.15;;
26822;SDS011;14852;51.910;8.878;2023-03-13T02:59:10;11.98;;;3.65;;
26822;SDS011;14852;51.910;8.878;2023-03-13T03:01:39;11.55;;;3.85;;
26822;SDS011;14852;51.910;8.878;2023-03-13T03:04:05;10.10;;;3.72;;
26822;SDS011;14852;51.910;8.878;2023-03-13T03:06:31;13.82;;;4.03;;
26822;SDS011;14852;51.910;8.878;2023-03-13T03:08:59;8.13;;;3.10;;
26822;SDS011;14852;51.910;8.878;2023-03-13T03:11:27;13.55;;;3.97;;
26822;SDS011;14852;51.910;8.878;2023-03-13T03:13:59;8.05;;;3.47;;
26822;SDS011;14852;51.910;8.878;2023-03-13T03:16:28;10.02;;;3.22;;
26822;SDS011;14852;51.910;8.878;2023-03-13T03:18:54;10.30;;;4.85;;
26822;SDS011;14852;51.910;8.878;2023-03-13T03:21:20;9.20;;;3.42;;
26822;SDS011;14852;51.910;8.878;2023-03-13T03:23:49;11.10;;;4.07;;
26822;SDS011;14852;51.910;8.878;2023-03-13T03:26:15;12.00;;;3.60;;
26822;SDS011;14852;51.910;8.878;2023-03-13T03:28:41;10.55;;;4.00;;
26822;SDS011;14852;51.910;8.878;2023-03-13T03:31:12;8.85;;;4.28;;
26822;SDS011;14852;51.910;8.878;2023-03-13T03:33:39;12.20;;;3.53;;
26822;SDS011;14852;51.910;8.878;2023-03-13T03:36:10;14.95;;;3.85;;
26822;SDS011;14852;51.910;8.878;2023-03-13T03:38:39;8.63;;;3.53;;
26822;SDS011;14852;51.910;8.878;2023-03-13T03:41:08;11.55;;;3.45;;
26822;SDS011;14852;51.910;8.878;2023-03-13T03:43:35;14.18;;;4.40;;
26822;SDS011;14852;51.910;8.878;2023-03-13T03:46:03;9.45;;;3.67;;
26822;SDS011;14852;51.910;8.878;2023-03-13T03:48:29;13.68;;;3.38;;
26822;SDS011;14852;51.910;8.878;2023-03-13T03:50:55;12.15;;;3.90;;
26822;SDS011;14852;51.910;8.878;2023-03-13T03:53:22;7.30;;;3.35;;
26822;SDS011;14852;51.910;8.878;2023-03-13T03:55:48;8.60;;;3.60;;
26822;SDS011;14852;51.910;8.878;2023-03-13T03:58:14;13.00;;;4.28;;
26822;SDS011;14852;51.910;8.878;2023-03-13T04:00:56;7.43;;;3.78;;
26822;SDS011;14852;51.910;8.878;2023-03-13T04:03:22;11.50;;;3.50;;
26822;SDS011;14852;51.910;8.878;2023-03-13T04:05:49;8.50;;;3.10;;
26822;SDS011;14852;51.910;8.878;2023-03-13T04:08:15;8.43;;;3.83;;
26822;SDS011;14852;51.910;8.878;2023-03-13T04:10:41;8.07;;;3.50;;
26822;SDS011;14852;51.910;8.878;2023-03-13T04:13:07;10.77;;;3.40;;
26822;SDS011;14852;51.910;8.878;2023-03-13T04:15:33;6.93;;;2.80;;
26822;SDS011;14852;51.910;8.878;2023-03-13T04:17:59;5.95;;;2.40;;
26822;SDS011;14852;51.910;8.878;2023-03-13T04:20:25;8.75;;;2.97;;
26822;SDS011;14852;51.910;8.878;2023-03-13T04:22:52;7.70;;;2.90;;
26822;SDS011;14852;51.910;8.878;2023-03-13T04:25:18;7.32;;;2.92;;
26822;SDS011;14852;51.910;8.878;2023-03-13T04:27:47;8.38;;;2.83;;
26822;SDS011;14852;51.910;8.878;2023-03-13T04:30:13;8.45;;;2.80;;
26822;SDS011;14852;51.910;8.878;2023-03-13T04:33:14;4.60;;;1.95;;
26822;SDS011;14852;51.910;8.878;2023-03-13T04:35:46;4.43;;;2.13;;
26822;SDS011;14852;51.910;8.878;2023-03-13T04:38:18;4.70;;;2.03;;
26822;SDS011;14852;51.910;8.878;2023-03-13T04:41:04;11.88;;;3.17;;
26822;SDS011;14852;51.910;8.878;2023-03-13T04:43:45;5.72;;;2.38;;
26822;SDS011;14852;51.910;8.878;2023-03-13T04:46:29;4.82;;;2.38;;
26822;SDS011;14852;51.910;8.878;2023-03-13T04:49:13;3.40;;;1.95;;
26822;SDS011;14852;51.910;8.878;2023-03-13T04:51:50;3.67;;;2.00;;
26822;SDS011;14852;51.910;8.878;2023-03-13T04:54:24;3.47;;;1.80;;
26822;SDS011;14852;51.910;8.878;2023-03-13T04:56:57;2.67;;;1.70;;
26822;SDS011;14852;51.910;8.878;2023-03-13T04:59:43;5.05;;;2.00;;
26822;SDS011;14852;51.910;8.878;2023-03-13T05:02:34;4.10;;;1.83;;
26822;SDS011;14852;51.910;8.878;2023-03-13T05:05:06;4.20;;;2.08;;
26822;SDS011;14852;51.910;8.878;2023-03-13T05:07:50;6.78;;;2.08;;
26822;SDS011;14852;51.910;8.878;2023-03-13T05:10:45;2.05;;;1.63;;
26822;SDS011;14852;51.910;8.878;2023-03-13T05:13:30;5.97;;;2.10;;
26822;SDS011;14852;51.910;8.878;2023-03-13T05:15:56;3.88;;;2.20;;
26822;SDS011;14852;51.910;8.878;2023-03-13T05:18:53;3.17;;;1.60;;
26822;SDS011;14852;51.910;8.878;2023-03-13T05:21:38;3.53;;;1.58;;
26822;SDS011;14852;51.910;8.878;2023-03-13T05:24:42;1.85;;;1.30;;
26822;SDS011;14852;51.910;8.878;2023-03-13T05:27:27;2.40;;;1.30;;
26822;SDS011;14852;51.910;8.878;2023-03-13T05:30:06;2.90;;;1.80;;
26822;SDS011;14852;51.910;8.878;2023-03-13T05:32:40;3.25;;;1.35;;
26822;SDS011;14852;51.910;8.878;2023-03-13T05:35:25;2.47;;;1.40;;
26822;SDS011;14852;51.910;8.878;2023-03-13T05:38:17;1.60;;;1.48;;
26822;SDS011;14852;51.910;8.878;2023-03-13T05:41:02;1.08;;;0.93;;
26822;SDS011;14852;51.910;8.878;2023-03-13T05:43:40;2.60;;;1.60;;
26822;SDS011;14852;51.910;8.878;2023-03-13T05:46:24;3.67;;;1.40;;
26822;SDS011;14852;51.910;8.878;2023-03-13T05:49:14;3.47;;;1.08;;
26822;SDS011;14852;51.910;8.878;2023-03-13T05:51:58;2.70;;;1.58;;
26822;SDS011;14852;51.910;8.878;2023-03-13T05:54:39;3.15;;;1.40;;
26822;SDS011;14852;51.910;8.878;2023-03-13T05:57:20;1.88;;;1.30;;
26822;SDS011;14852;51.910;8.878;2023-03-13T06:00:07;3.53;;;1.20;;
26822;SDS011;14852;51.910;8.878;2023-03-13T06:02:45;1.48;;;1.20;;
26822;SDS011;14852;51.910;8.878;2023-03-13T06:05:16;1.00;;;0.90;;
26822;SDS011;14852;51.910;8.878;2023-03-13T06:07:43;1.27;;;0.88;;
26822;SDS011;14852;51.910;8.878;2023-03-13T06:10:09;3.00;;;1.63;;
26822;SDS011;14852;51.910;8.878;2023-03-13T06:12:36;1.55;;;1.10;;
26822;SDS011;14852;51.910;8.878;2023-03-13T06:15:03;1.63;;;1.30;;
26822;SDS011;14852;51.910;8.878;2023-03-13T06:17:48;1.90;;;1.20;;
26822;SDS011;14852;51.910;8.878;2023-03-13T06:20:14;4.10;;;0.95;;
26822;SDS011;14852;51.910;8.878;2023-03-13T06:22:40;1.80;;;1.20;;
26822;SDS011;14852;51.910;8.878;2023-03-13T06:25:06;4.20;;;1.55;;
26822;SDS011;14852;51.910;8.878;2023-03-13T06:27:32;1.65;;;1.27;;
26822;SDS011;14852;51.910;8.878;2023-03-13T06:29:59;2.83;;;1.40;;
26822;SDS011;14852;51.910;8.878;2023-03-13T06:32:25;1.10;;;1.00;;
26822;SDS011;14852;51.910;8.878;2023-03-13T06:34:52;2.40;;;1.42;;
26822;SDS011;14852;51.910;8.878;2023-03-13T06:37:18;2.78;;;1.40;;
26822;SDS011;14852;51.910;8.878;2023-03-13T06:39:44;1.77;;;1.00;;
26822;SDS011;14852;51.910;8.878;2023-03-13T06:42:09;2.00;;;1.20;;
26822;SDS011;14852;51.910;8.878;2023-03-13T06:44:35;2.13;;;1.27;;
26822;SDS011;14852;51.910;8.878;2023-03-13T06:47:01;1.95;;;1.05;;
26822;SDS011;14852;51.910;8.878;2023-03-13T06:49:27;1.13;;;1.00;;
26822;SDS011;14852;51.910;8.878;2023-03-13T06:51:53;1.48;;;1.20;;
26822;SDS011;14852;51.910;8.878;2023-03-13T06:54:22;1.67;;;1.23;;
26822;SDS011;14852;51.910;8.878;2023-03-13T06:56:48;1.88;;;1.58;;
26822;SDS011;14852;51.910;8.878;2023-03-13T06:59:14;3.67;;;1.40;;
26822;SDS011;14852;51.910;8.878;2023-03-13T07:01:40;3.30;;;1.92;;
26822;SDS011;14852;51.910;8.878;2023-03-13T07:04:07;1.40;;;1.02;;
26822;SDS011;14852;51.910;8.878;2023-03-13T07:06:37;1.10;;;1.02;;
26822;SDS011;14852;51.910;8.878;2023-03-13T07:09:02;1.45;;;1.25;;
26822;SDS011;14852;51.910;8.878;2023-03-13T07:11:29;1.38;;;1.20;;
26822;SDS011;14852;51.910;8.878;2023-03-13T07:13:55;1.48;;;1.38;;
26822;SDS011;14852;51.910;8.878;2023-03-13T07:16:21;7.80;;;2.03;;
26822;SDS011;14852;51.910;8.878;2023-03-13T07:18:47;3.28;;;2.00;;
26822;SDS011;14852;51.910;8.878;2023-03-13T07:21:13;1.77;;;1.23;;
26822;SDS011;14852;51.910;8.878;2023-03-13T07:23:39;2.10;;;1.55;;
26822;SDS011;14852;51.910;8.878;2023-03-13T07:26:06;2.28;;;1.52;;
26822;SDS011;14852;51.910;8.878;2023-03-13T07:28:36;3.72;;;2.13;;
26822;SDS011;14852;51.910;8.878;2023-03-13T07:31:12;2.00;;;1.60;;
26822;SDS011;14852;51.910;8.878;2023-03-13T07:33:41;2.65;;;1.33;;
26822;SDS011;14852;51.910;8.878;2023-03-13T07:36:07;1.73;;;1.50;;
26822;SDS011;14852;51.910;8.878;2023-03-13T07:38:34;1.30;;;1.20;;
26822;SDS011;14852;51.910;8.878;2023-03-13T07:41:00;1.90;;;1.50;;
26822;SDS011;14852;51.910;8.878;2023-03-13T07:43:27;1.60;;;1.23;;
26822;SDS011;14852;51.910;8.878;2023-03-13T07:45:59;1.48;;;1.38;;
26822;SDS011;14852;51.910;8.878;2023-03-13T07:48:28;1.90;;;1.35;;
26822;SDS011;14852;51.910;8.878;2023-03-13T07:51:00;1.42;;;1.33;;
26822;SDS011;14852;51.910;8.878;2023-03-13T07:53:27;2.13;;;1.38;;
26822;SDS011;14852;51.910;8.878;2023-03-13T07:55:58;2.60;;;1.23;;
26822;SDS011;14852;51.910;8.878;2023-03-13T07:58:29;1.35;;;1.23;;
26822;SDS011;14852;51.910;8.878;2023-03-13T08:01:00;2.03;;;1.25;;
26822;SDS011;14852;51.910;8.878;2023-03-13T08:03:32;1.38;;;1.25;;
26822;SDS011;14852;51.910;8.878;2023-03-13T08:06:02;2.47;;;1.20;;
26822;SDS011;14852;51.910;8.878;2023-03-13T08:08:33;2.38;;;1.90;;
26822;SDS011;14852;51.910;8.878;2023-03-13T08:11:04;2.45;;;1.35;;
26822;SDS011;14852;51.910;8.878;2023-03-13T08:13:41;1.40;;;1.05;;
26822;SDS011;14852;51.910;8.878;2023-03-13T08:16:13;1.55;;;1.30;;
26822;SDS011;14852;51.910;8.878;2023-03-13T08:18:42;3.42;;;1.52;;
26822;SDS011;14852;51.910;8.878;2023-03-13T08:21:18;1.33;;;1.23;;
26822;SDS011;14852;51.910;8.878;2023-03-13T08:23:46;1.50;;;1.30;;
26822;SDS011;14852;51.910;8.878;2023-03-13T08:26:14;1.30;;;1.20;;
26822;SDS011;14852;51.910;8.878;2023-03-13T08:28:43;2.22;;;1.48;;
26822;SDS011;14852;51.910;8.878;2023-03-13T08:33:42;1.48;;;1.38;;
26822;SDS011;14852;51.910;8.878;2023-03-13T08:36:13;1.27;;;1.10;;
26822;SDS011;14852;51.910;8.878;2023-03-13T08:38:41;2.40;;;1.27;;
26822;SDS011;14852;51.910;8.878;2023-03-13T08:41:08;1.30;;;1.20;;
26822;SDS011;14852;51.910;8.878;2023-03-13T08:43:36;1.75;;;1.65;;
26822;SDS011;14852;51.910;8.878;2023-03-13T08:46:01;2.17;;;1.60;;
26822;SDS011;14852;51.910;8.878;2023-03-13T08:48:28;1.40;;;1.30;;
26822;SDS011;14852;51.910;8.878;2023-03-13T08:51:04;4.72;;;1.52;;
26822;SDS011;14852;51.910;8.878;2023-03-13T08:53:39;3.80;;;2.08;;
26822;SDS011;14852;51.910;8.878;2023-03-13T08:56:11;1.83;;;1.23;;
26822;SDS011;14852;51.910;8.878;2023-03-13T08:58:40;3.50;;;1.85;;
26822;SDS011;14852;51.910;8.878;2023-03-13T09:01:10;2.28;;;1.30;;
26822;SDS011;14852;51.910;8.878;2023-03-13T09:03:38;4.22;;;1.60;;
26822;SDS011;14852;51.910;8.878;2023-03-13T09:06:05;1.60;;;1.40;;
26822;SDS011;14852;51.910;8.878;2023-03-13T09:08:33;3.03;;;1.70;;
26822;SDS011;14852;51.910;8.878;2023-03-13T09:11:01;1.63;;;1.38;;
26822;SDS011;14852;51.910;8.878;2023-03-13T09:13:31;2.88;;;1.50;;
26822;SDS011;14852;51.910;8.878;2023-03-13T09:16:02;2.33;;;1.25;;
26822;SDS011;14852;51.910;8.878;2023-03-13T09:18:45;2.85;;;1.80;;
26822;SDS011;14852;51.910;8.878;2023-03-13T09:21:13;2.53;;;1.60;;
26822;SDS011;14852;51.910;8.878;2023-03-13T09:23:42;2.25;;;1.90;;
26822;SDS011;14852;51.910;8.878;2023-03-13T09:26:08;2.92;;;1.58;;
26822;SDS011;14852;51.910;8.878;2023-03-13T09:28:34;2.40;;;1.90;;
26822;SDS011;14852;51.910;8.878;2023-03-13T09:33:37;1.90;;;1.50;;
26822;SDS011;14852;51.910;8.878;2023-03-13T09:36:03;2.10;;;1.77;;
26822;SDS011;14852;51.910;8.878;2023-03-13T09:38:29;2.75;;;1.80;;
26822;SDS011;14852;51.910;8.878;2023-03-13T09:40:59;2.60;;;2.00;;
26822;SDS011;14852;51.910;8.878;2023-03-13T09:49:33;3.10;;;2.20;;
26822;SDS011;14852;51.910;8.878;2023-03-13T09:52:18;8.52;;;3.28;;
26822;SDS011;14852;51.910;8.878;2023-03-13T09:55:04;2.88;;;1.80;;
26822;SDS011;14852;51.910;8.878;2023-03-13T09:57:53;2.78;;;1.77;;
26822;SDS011;14852;51.910;8.878;2023-03-13T10:00:47;2.67;;;2.28;;
26822;SDS011;14852;51.910;8.878;2023-03-13T10:03:27;2.42;;;1.63;;
26822;SDS011;14852;51.910;8.878;2023-03-13T10:06:00;3.65;;;2.47;;
26822;SDS011;14852;51.910;8.878;2023-03-13T10:08:31;4.20;;;2.60;;
26822;SDS011;14852;51.910;8.878;2023-03-13T10:11:06;3.78;;;2.35;;
26822;SDS011;14852;51.910;8.878;2023-03-13T10:14:05;4.78;;;2.25;;
26822;SDS011;14852;51.910;8.878;2023-03-13T10:16:46;2.95;;;1.95;;
26822;SDS011;14852;51.910;8.878;2023-03-13T10:19:26;5.20;;;2.50;;
26822;SDS011;14852;51.910;8.878;2023-03-13T10:22:01;3.08;;;2.40;;
26822;SDS011;14852;51.910;8.878;2023-03-13T10:24:49;3.80;;;2.42;;
26822;SDS011;14852;51.910;8.878;2023-03-13T10:27:26;2.83;;;1.92;;
26822;SDS011;14852;51.910;8.878;2023-03-13T10:29:52;5.78;;;2.50;;
26822;SDS011;14852;51.910;8.878;2023-03-13T10:32:18;3.75;;;2.20;;
26822;SDS011;14852;51.910;8.878;2023-03-13T10:39:53;3.90;;;2.20;;
26822;SDS011;14852;51.910;8.878;2023-03-13T10:42:30;4.57;;;2.42;;
26822;SDS011;14852;51.910;8.878;2023-03-13T10:45:12;3.65;;;2.85;;
26822;SDS011;14852;51.910;8.878;2023-03-13T10:47:44;3.75;;;2.20;;
26822;SDS011;14852;51.910;8.878;2023-03-13T10:50:17;3.65;;;2.58;;
26822;SDS011;14852;51.910;8.878;2023-03-13T10:52:46;3.70;;;1.90;;
26822;SDS011;14852;51.910;8.878;2023-03-13T10:55:21;6.78;;;2.55;;
26822;SDS011;14852;51.910;8.878;2023-03-13T10:58:02;3.30;;;2.70;;
26822;SDS011;14852;51.910;8.878;2023-03-13T11:00:32;3.67;;;2.65;;
26822;SDS011;14852;51.910;8.878;2023-03-13T11:03:14;4.45;;;2.10;;
26822;SDS011;14852;51.910;8.878;2023-03-13T11:05:43;3.50;;;1.92;;
26822;SDS011;14852;51.910;8.878;2023-03-13T11:08:26;4.07;;;1.90;;
26822;SDS011;14852;51.910;8.878;2023-03-13T11:10:59;5.20;;;2.95;;
26822;SDS011;14852;51.910;8.878;2023-03-13T11:13:40;7.70;;;2.65;;
26822;SDS011;14852;51.910;8.878;2023-03-13T11:16:21;4.55;;;2.10;;
26822;SDS011;14852;51.910;8.878;2023-03-13T11:21:47;2.78;;;2.22;;
26822;SDS011;14852;51.910;8.878;2023-03-13T11:24:49;4.38;;;1.70;;
26822;SDS011;14852;51.910;8.878;2023-03-13T11:27:59;3.47;;;2.15;;
26822;SDS011;14852;51.910;8.878;2023-03-13T11:38:54;3.83;;;2.08;;
26822;SDS011;14852;51.910;8.878;2023-03-13T11:41:50;2.85;;;1.90;;
26822;SDS011;14852;51.910;8.878;2023-03-13T11:50:51;3.88;;;1.95;;
26822;SDS011;14852;51.910;8.878;2023-03-13T11:53:35;2.97;;;2.10;;
26822;SDS011;14852;51.910;8.878;2023-03-13T11:56:39;3.03;;;2.35;;
26822;SDS011;14852;51.910;8.878;2023-03-13T11:59:30;1.92;;;1.60;;
26822;SDS011;14852;51.910;8.878;2023-03-13T12:02:30;4.57;;;1.70;;
26822;SDS011;14852;51.910;8.878;2023-03-13T12:05:04;1.95;;;1.60;;
26822;SDS011;14852;51.910;8.878;2023-03-13T12:07:35;3.85;;;1.75;;
26822;SDS011;14852;51.910;8.878;2023-03-13T12:15:37;4.93;;;1.90;;
26822;SDS011;14852;51.910;8.878;2023-03-13T12:18:16;2.92;;;1.95;;
26822;SDS011;14852;51.910;8.878;2023-03-13T12:21:12;2.42;;;1.75;;
26822;SDS011;14852;51.910;8.878;2023-03-13T12:27:01;2.63;;;1.70;;
26822;SDS011;14852;51.910;8.878;2023-03-13T12:29:47;3.38;;;1.80;;
26822;SDS011;14852;51.910;8.878;2023-03-13T12:35:05;1.95;;;1.20;;
26822;SDS011;14852;51.910;8.878;2023-03-13T12:40:46;3.17;;;1.48;;
26822;SDS011;14852;51.910;8.878;2023-03-13T12:43:35;2.35;;;1.33;;
26822;SDS011;14852;51.910;8.878;2023-03-13T12:49:16;2.05;;;1.55;;
26822;SDS011;14852;51.910;8.878;2023-03-13T12:55:19;1.52;;;1.15;;
26822;SDS011;14852;51.910;8.878;2023-03-13T12:58:14;1.55;;;1.10;;
26822;SDS011;14852;51.910;8.878;2023-03-13T13:00:56;2.63;;;1.17;;
26822;SDS011;14852;51.910;8.878;2023-03-13T13:03:32;1.40;;;1.08;;
26822;SDS011;14852;51.910;8.878;2023-03-13T13:06:12;2.45;;;1.42;;
26822;SDS011;14852;51.910;8.878;2023-03-13T13:08:41;2.53;;;1.27;;
26822;SDS011;14852;51.910;8.878;2023-03-13T13:11:34;0.90;;;0.80;;
26822;SDS011;14852;51.910;8.878;2023-03-13T13:16:41;2.58;;;1.50;;
26822;SDS011;14852;51.910;8.878;2023-03-13T13:30:46;2.92;;;1.20;;
26822;SDS011;14852;51.910;8.878;2023-03-13T13:38:33;2.63;;;1.40;;
26822;SDS011;14852;51.910;8.878;2023-03-13T13:41:21;2.72;;;1.48;;
26822;SDS011;14852;51.910;8.878;2023-03-13T13:46:55;2.53;;;1.20;;
26822;SDS011;14852;51.910;8.878;2023-03-13T13:49:32;1.33;;;1.20;;
26822;SDS011;14852;51.910;8.878;2023-03-13T13:54:30;4.03;;;1.58;;
26822;SDS011;14852;51.910;8.878;2023-03-13T13:57:17;3.15;;;1.27;;
26822;SDS011;14852;51.910;8.878;2023-03-13T13:59:51;1.92;;;1.05;;
26822;SDS011;14852;51.910;8.878;2023-03-13T14:02:49;1.80;;;0.75;;
26822;SDS011;14852;51.910;8.878;2023-03-13T14:05:20;1.17;;;1.02;;
26822;SDS011;14852;51.910;8.878;2023-03-13T14:10:42;1.50;;;1.10;;
26822;SDS011;14852;51.910;8.878;2023-03-13T14:13:39;1.48;;;1.27;;
26822;SDS011;14852;51.910;8.878;2023-03-13T14:16:19;0.88;;;0.88;;
26822;SDS011;14852;51.910;8.878;2023-03-13T14:18:49;1.33;;;0.73;;
26822;SDS011;14852;51.910;8.878;2023-03-13T14:21:19;1.00;;;0.90;;
26822;SDS011;14852;51.910;8.878;2023-03-13T14:23:49;1.38;;;0.90;;
26822;SDS011;14852;51.910;8.878;2023-03-13T14:28:47;0.82;;;0.70;;
26822;SDS011;14852;51.910;8.878;2023-03-13T14:31:23;1.58;;;1.00;;
26822;SDS011;14852;51.910;8.878;2023-03-13T14:33:57;2.00;;;0.93;;
26822;SDS011;14852;51.910;8.878;2023-03-13T14:36:45;1.20;;;0.90;;
26822;SDS011;14852;51.910;8.878;2023-03-13T14:39:55;0.80;;;0.70;;
26822;SDS011;14852;51.910;8.878;2023-03-13T14:42:13;1.80;;;0.88;;
26822;SDS011;14852;51.910;8.878;2023-03-13T14:44:41;1.27;;;1.05;;
26822;SDS011;14852;51.910;8.878;2023-03-13T14:47:17;2.10;;;1.30;;
26822;SDS011;14852;51.910;8.878;2023-03-13T14:49:58;2.17;;;0.90;;
26822;SDS011;14852;51.910;8.878;2023-03-13T14:52:28;1.65;;;1.40;;
26822;SDS011;14852;51.910;8.878;2023-03-13T14:54:57;2.40;;;1.25;;
26822;SDS011;14852;51.910;8.878;2023-03-13T15:05:41;1.45;;;0.93;;
26822;SDS011;14852;51.910;8.878;2023-03-13T15:10:46;1.55;;;1.00;;
26822;SDS011;14852;51.910;8.878;2023-03-13T15:15:53;3.38;;;1.85;;
26822;SDS011;14852;51.910;8.878;2023-03-13T15:18:21;3.10;;;1.50;;
26822;SDS011;14852;51.910;8.878;2023-03-13T15:20:53;2.00;;;0.88;;
26822;SDS011;14852;51.910;8.878;2023-03-13T15:23:50;1.35;;;1.20;;
26822;SDS011;14852;51.910;8.878;2023-03-13T15:26:20;2.75;;;1.40;;
26822;SDS011;14852;51.910;8.878;2023-03-13T15:28:46;1.08;;;0.98;;
26822;SDS011;14852;51.910;8.878;2023-03-13T15:31:12;0.90;;;0.80;;
26822;SDS011;14852;51.910;8.878;2023-03-13T15:33:39;1.45;;;1.23;;
26822;SDS011;14852;51.910;8.878;2023-03-13T15:36:06;1.17;;;1.08;;
26822;SDS011;14852;51.910;8.878;2023-03-13T15:38:33;1.80;;;1.02;;
26822;SDS011;14852;51.910;8.878;2023-03-13T15:40:58;2.63;;;1.40;;
26822;SDS011;14852;51.910;8.878;2023-03-13T15:43:24;2.47;;;0.82;;
26822;SDS011;14852;51.910;8.878;2023-03-13T15:45:50;2.90;;;1.17;;
26822;SDS011;14852;51.910;8.878;2023-03-13T15:51:00;1.60;;;0.88;;
26822;SDS011;14852;51.910;8.878;2023-03-13T15:53:29;1.00;;;0.73;;
26822;SDS011;14852;51.910;8.878;2023-03-13T15:55:58;3.58;;;1.20;;
26822;SDS011;14852;51.910;8.878;2023-03-13T15:58:25;0.75;;;0.75;;
26822;SDS011;14852;51.910;8.878;2023-03-13T16:00:53;2.28;;;0.95;;
26822;SDS011;14852;51.910;8.878;2023-03-13T16:03:21;2.35;;;1.02;;
26822;SDS011;14852;51.910;8.878;2023-03-13T16:05:53;1.80;;;1.08;;
26822;SDS011;14852;51.910;8.878;2023-03-13T16:08:21;0.77;;;0.77;;
26822;SDS011;14852;51.910;8.878;2023-03-13T16:10:51;0.90;;;0.73;;
26822;SDS011;14852;51.910;8.878;2023-03-13T16:13:17;2.20;;;1.10;;
26822;SDS011;14852;51.910;8.878;2023-03-13T16:15:43;0.93;;;0.77;;
26822;SDS011;14852;51.910;8.878;2023-03-13T16:18:15;1.08;;;0.90;;
26822;SDS011;14852;51.910;8.878;2023-03-13T16:20:45;1.67;;;1.40;;
26822;SDS011;14852;51.910;8.878;2023-03-13T16:23:11;2.25;;;0.95;;
26822;SDS011;14852;51.910;8.878;2023-03-13T16:25:37;1.13;;;0.65;;
26822;SDS011;14852;51.910;8.878;2023-03-13T16:28:03;1.00;;;0.90;;
26822;SDS011;14852;51.910;8.878;2023-03-13T16:30:31;0.80;;;0.80;;
26822;SDS011;14852;51.910;8.878;2023-03-13T16:32:58;1.42;;;1.00;;
26822;SDS011;14852;51.910;8.878;2023-03-13T16:35:25;0.70;;;0.70;;
26822;SDS011;14852;51.910;8.878;2023-03-13T16:37:56;2.28;;;1.10;;
26822;SDS011;14852;51.910;8.878;2023-03-13T16:40:33;1.23;;;1.00;;
26822;SDS011;14852;51.910;8.878;2023-03-13T16:42:59;1.25;;;1.10;;
26822;SDS011;14852;51.910;8.878;2023-03-13T16:45:26;3.08;;;1.45;;
26822;SDS011;14852;51.910;8.878;2023-03-13T16:47:52;1.63;;;1.20;;
26822;SDS011;14852;51.910;8.878;2023-03-13T16:50:31;1.58;;;1.15;;
26822;SDS011;14852;51.910;8.878;2023-03-13T16:55:27;3.65;;;1.75;;
26822;SDS011;14852;51.910;8.878;2023-03-13T16:57:57;3.10;;;1.65;;
26822;SDS011;14852;51.910;8.878;2023-03-13T17:00:24;1.50;;;1.30;;
26822;SDS011;14852;51.910;8.878;2023-03-13T17:02:52;2.15;;;1.10;;